Погода Шеломына 2 недели

Витебская область, Белоруссия

24 мая-06 июня
  • 24мая
    Сегодня
    +10°
    +22°
    Ясно и безоблачно
    ВремяПогодаТемператураВлажностьДавлениеВетер, м/сВероятность осадков
    00:00Ясно и безоблачно+15°C54 %754 мм2.7 м/с2 %
    03:00Ясно и безоблачно+13°C55 %755 мм2.7 м/с2 %
    06:00Ясно и безоблачно+12°C57 %756 мм2.4 м/с2 %
    09:00Ясно и безоблачно+16°C50 %756 мм3.3 м/с2 %
    12:00Ясно и безоблачно+20°C43 %757 мм3.5 м/с2 %
    15:00Ясно и безоблачно+22°C38 %756 мм3.6 м/с2 %
    18:00Ясно и безоблачно+21°C40 %755 мм3.1 м/с2 %
    21:00Ясно и безоблачно+17°C54 %756 мм2.0 м/с2 %
  • 25мая
    Суббота
    +9°
    +23°
    Ясно и безоблачно
    ВремяПогодаТемператураВлажностьДавлениеВетер, м/сВероятность осадков
    00:00Ясно и безоблачно+13°C59 %756 мм1.9 м/с2 %
    03:00Ясно и безоблачно+12°C62 %756 мм2.1 м/с2 %
    06:00Ясно и безоблачно+11°C65 %756 мм1.9 м/с2 %
    09:00Ясно и безоблачно+17°C55 %756 мм2.3 м/с2 %
    12:00Ясно и безоблачно+22°C44 %756 мм2.7 м/с2 %
    15:00Ясно и безоблачно+23°C37 %755 мм3.0 м/с2 %
    18:00Ясно и безоблачно+23°C37 %754 мм2.6 м/с2 %
    21:00Ясно и безоблачно+19°C66 %754 мм1.6 м/с2 %
  • 26мая
    Воскресенье
    +12°
    +24°
    Практически безоблачно
    ВремяПогодаТемператураВлажностьДавлениеВетер, м/сВероятность осадков
    00:00Ясно и безоблачно+14°C69 %754 мм1.2 м/с2 %
    03:00Облачно с прояснениями+12°C76 %754 мм1.1 м/с2 %
    06:00Облачно с прояснениями+12°C75 %754 мм0.7 м/с2 %
    09:00Облачно с прояснениями+18°C56 %754 мм0.9 м/с2 %
    12:00Практически безоблачно+23°C38 %754 мм1.9 м/с2 %
    15:00Практически безоблачно+24°C33 %753 мм2.9 м/с2 %
    18:00Ясно и безоблачно+24°C35 %752 мм2.3 м/с2 %
    21:00Ясно и безоблачно+21°C50 %752 мм1.2 м/с2 %
  • 27мая
    Понедельник
    +13°
    +26°
    Практически безоблачно
    ВремяПогодаТемператураВлажностьДавлениеВетер, м/сВероятность осадков
    00:00Ясно и безоблачно+16°C65 %752 мм0.6 м/с2 %
    03:00Ясно и безоблачно+15°C67 %753 мм0.7 м/с2 %
    06:00Ясно и безоблачно+13°C81 %753 мм0.9 м/с2 %
    09:00Ясно и безоблачно+18°C61 %753 мм1.2 м/с2 %
    12:00Практически безоблачно+23°C40 %754 мм1.9 м/с8 %
    15:00Практически безоблачно+25°C40 %753 мм2.1 м/с21 %
    18:00Небольшая облачность и лёгкий дождик+25°C46 %753 мм2.4 м/с32 %
    21:00Ясно и безоблачно+20°C69 %753 мм1.7 м/с7 %
  • 28мая
    Вторник
    +14°
    +26°
    Ясно и безоблачно
    ВремяПогодаТемператураВлажностьДавлениеВетер, м/сВероятность осадков
    00:00Ясно и безоблачно+17°C79 %753 мм1.7 м/с2 %
    03:00Ясно и безоблачно+14°C64 %753 мм1.7 м/с2 %
    06:00Ясно и безоблачно+13°C66 %754 мм1.8 м/с2 %
    09:00Ясно и безоблачно+18°C54 %754 мм2.3 м/с2 %
    12:00Ясно и безоблачно+23°C45 %754 мм2.8 м/с2 %
    15:00Ясно и безоблачно+25°C42 %753 мм3.2 м/с3 %
    18:00Ясно и безоблачно+24°C42 %752 мм1.7 м/с9 %
    21:00Ясно и безоблачно+21°C66 %751 мм1.4 м/с2 %
Мы используем cookies
Соглашаюсь